sensor_id;sensor_type;location;lat;lon;timestamp;pressure;altitude;pressure_sealevel;temperature;humidity
20620;BME280;10469;42.720;23.252;2023-07-31T00:00:55;94549.38;;;21.36;100.00
20620;BME280;10469;42.720;23.252;2023-07-31T00:03:20;94560.38;;;21.30;100.00
20620;BME280;10469;42.720;23.252;2023-07-31T00:05:46;94554.06;;;21.21;100.00
20620;BME280;10469;42.720;23.252;2023-07-31T00:08:11;94562.69;;;21.37;100.00
20620;BME280;10469;42.720;23.252;2023-07-31T00:10:37;94552.94;;;21.22;100.00
20620;BME280;10469;42.720;23.252;2023-07-31T00:13:03;94554.03;;;21.35;100.00
20620;BME280;10469;42.720;23.252;2023-07-31T00:15:28;94550.50;;;21.35;100.00
20620;BME280;10469;42.720;23.252;2023-07-31T00:17:54;94551.41;;;21.52;100.00
20620;BME280;10469;42.720;23.252;2023-07-31T00:20:19;94556.00;;;21.43;100.00
20620;BME280;10469;42.720;23.252;2023-07-31T00:22:45;94547.38;;;21.27;100.00
20620;BME280;10469;42.720;23.252;2023-07-31T00:25:11;94544.78;;;21.22;100.00
20620;BME280;10469;42.720;23.252;2023-07-31T00:27:36;94533.09;;;20.99;100.00
20620;BME280;10469;42.720;23.252;2023-07-31T00:30:02;94538.47;;;20.91;100.00
20620;BME280;10469;42.720;23.252;2023-07-31T00:32:28;94517.78;;;20.90;100.00
20620;BME280;10469;42.720;23.252;2023-07-31T00:34:54;94522.75;;;20.88;100.00
20620;BME280;10469;42.720;23.252;2023-07-31T00:37:19;94523.84;;;20.87;100.00
20620;BME280;10469;42.720;23.252;2023-07-31T00:39:45;94527.88;;;20.67;100.00
20620;BME280;10469;42.720;23.252;2023-07-31T00:42:10;94526.94;;;20.71;100.00
20620;BME280;10469;42.720;23.252;2023-07-31T00:44:36;94528.94;;;20.79;100.00
20620;BME280;10469;42.720;23.252;2023-07-31T00:47:02;94521.22;;;20.59;100.00
20620;BME280;10469;42.720;23.252;2023-07-31T00:49:27;94529.31;;;20.64;100.00
20620;BME280;10469;42.720;23.252;2023-07-31T00:51:53;94526.41;;;20.47;100.00
20620;BME280;10469;42.720;23.252;2023-07-31T00:54:19;94523.53;;;20.66;100.00
20620;BME280;10469;42.720;23.252;2023-07-31T00:56:46;94527.66;;;20.63;100.00
20620;BME280;10469;42.720;23.252;2023-07-31T00:59:13;94522.78;;;20.51;100.00
20620;BME280;10469;42.720;23.252;2023-07-31T01:01:40;94510.06;;;20.47;100.00
20620;BME280;10469;42.720;23.252;2023-07-31T01:04:05;94521.03;;;20.42;100.00
20620;BME280;10469;42.720;23.252;2023-07-31T01:06:43;94525.69;;;20.55;100.00
20620;BME280;10469;42.720;23.252;2023-07-31T01:12:09;94526.31;;;20.52;100.00
20620;BME280;10469;42.720;23.252;2023-07-31T01:14:38;94504.34;;;20.35;100.00
20620;BME280;10469;42.720;23.252;2023-07-31T01:17:04;94503.31;;;20.44;100.00
20620;BME280;10469;42.720;23.252;2023-07-31T01:19:30;94496.06;;;20.40;100.00
20620;BME280;10469;42.720;23.252;2023-07-31T01:27:34;94508.13;;;19.97;100.00
20620;BME280;10469;42.720;23.252;2023-07-31T01:30:16;94513.78;;;20.01;100.00
20620;BME280;10469;42.720;23.252;2023-07-31T01:32:47;94513.66;;;20.06;100.00
20620;BME280;10469;42.720;23.252;2023-07-31T01:35:13;94509.00;;;20.20;100.00
20620;BME280;10469;42.720;23.252;2023-07-31T01:37:39;94506.84;;;19.95;100.00
20620;BME280;10469;42.720;23.252;2023-07-31T01:40:07;94493.50;;;20.07;100.00
20620;BME280;10469;42.720;23.252;2023-07-31T01:42:32;94503.66;;;20.15;100.00
20620;BME280;10469;42.720;23.252;2023-07-31T01:44:58;94502.31;;;20.04;100.00
20620;BME280;10469;42.720;23.252;2023-07-31T01:47:25;94510.84;;;20.11;100.00
20620;BME280;10469;42.720;23.252;2023-07-31T01:49:50;94514.56;;;20.15;100.00
20620;BME280;10469;42.720;23.252;2023-07-31T01:52:16;94501.28;;;20.00;100.00
20620;BME280;10469;42.720;23.252;2023-07-31T01:54:42;94497.34;;;20.06;100.00
20620;BME280;10469;42.720;23.252;2023-07-31T01:57:07;94511.47;;;20.08;100.00
20620;BME280;10469;42.720;23.252;2023-07-31T01:59:33;94522.44;;;20.17;100.00
20620;BME280;10469;42.720;23.252;2023-07-31T02:01:58;94521.00;;;20.19;100.00
20620;BME280;10469;42.720;23.252;2023-07-31T02:04:24;94519.81;;;20.25;100.00
20620;BME280;10469;42.720;23.252;2023-07-31T02:06:50;94525.63;;;20.33;100.00
20620;BME280;10469;42.720;23.252;2023-07-31T02:09:15;94513.25;;;20.26;100.00
20620;BME280;10469;42.720;23.252;2023-07-31T02:11:41;94520.81;;;20.29;100.00
20620;BME280;10469;42.720;23.252;2023-07-31T02:14:06;94524.13;;;20.26;100.00
20620;BME280;10469;42.720;23.252;2023-07-31T02:16:32;94515.75;;;20.23;100.00
20620;BME280;10469;42.720;23.252;2023-07-31T02:18:58;94519.88;;;20.48;100.00
20620;BME280;10469;42.720;23.252;2023-07-31T02:21:23;94529.72;;;20.44;100.00
20620;BME280;10469;42.720;23.252;2023-07-31T02:23:49;94518.97;;;20.39;100.00
20620;BME280;10469;42.720;23.252;2023-07-31T02:26:14;94519.56;;;20.49;100.00
20620;BME280;10469;42.720;23.252;2023-07-31T02:28:40;94516.66;;;20.32;100.00
20620;BME280;10469;42.720;23.252;2023-07-31T02:31:08;94516.81;;;20.49;100.00
20620;BME280;10469;42.720;23.252;2023-07-31T02:33:34;94510.06;;;20.47;100.00
20620;BME280;10469;42.720;23.252;2023-07-31T02:35:59;94498.47;;;20.41;100.00
20620;BME280;10469;42.720;23.252;2023-07-31T02:38:25;94518.03;;;20.43;100.00
20620;BME280;10469;42.720;23.252;2023-07-31T02:40:50;94514.28;;;20.53;100.00
20620;BME280;10469;42.720;23.252;2023-07-31T02:43:16;94531.84;;;20.47;100.00
20620;BME280;10469;42.720;23.252;2023-07-31T02:45:42;94526.75;;;20.68;100.00
20620;BME280;10469;42.720;23.252;2023-07-31T02:48:07;94526.19;;;20.79;100.00
20620;BME280;10469;42.720;23.252;2023-07-31T02:50:33;94516.03;;;20.71;100.00
20620;BME280;10469;42.720;23.252;2023-07-31T02:52:59;94534.50;;;20.74;100.00
20620;BME280;10469;42.720;23.252;2023-07-31T02:55:24;94531.78;;;20.74;100.00
20620;BME280;10469;42.720;23.252;2023-07-31T02:57:50;94524.72;;;20.73;100.00
20620;BME280;10469;42.720;23.252;2023-07-31T03:00:17;94529.66;;;20.71;100.00
20620;BME280;10469;42.720;23.252;2023-07-31T03:02:43;94539.34;;;20.77;100.00
20620;BME280;10469;42.720;23.252;2023-07-31T03:05:08;94543.00;;;20.73;100.00
20620;BME280;10469;42.720;23.252;2023-07-31T03:07:34;94534.56;;;20.47;100.00
20620;BME280;10469;42.720;23.252;2023-07-31T03:10:00;94541.06;;;20.73;100.00
20620;BME280;10469;42.720;23.252;2023-07-31T03:12:26;94548.38;;;20.87;100.00
20620;BME280;10469;42.720;23.252;2023-07-31T03:14:51;94561.50;;;20.85;100.00
20620;BME280;10469;42.720;23.252;2023-07-31T03:17:17;94550.38;;;20.95;100.00
20620;BME280;10469;42.720;23.252;2023-07-31T03:19:43;94548.19;;;20.61;100.00
20620;BME280;10469;42.720;23.252;2023-07-31T03:22:08;94562.50;;;20.89;100.00
20620;BME280;10469;42.720;23.252;2023-07-31T03:24:34;94552.09;;;20.68;100.00
20620;BME280;10469;42.720;23.252;2023-07-31T03:27:00;94553.31;;;20.62;100.00
20620;BME280;10469;42.720;23.252;2023-07-31T03:29:25;94547.97;;;20.57;100.00
20620;BME280;10469;42.720;23.252;2023-07-31T03:31:51;94559.69;;;20.80;100.00
20620;BME280;10469;42.720;23.252;2023-07-31T03:34:17;94564.94;;;20.90;100.00
20620;BME280;10469;42.720;23.252;2023-07-31T03:36:42;94569.31;;;20.77;100.00
20620;BME280;10469;42.720;23.252;2023-07-31T03:39:08;94570.53;;;20.94;100.00
20620;BME280;10469;42.720;23.252;2023-07-31T03:41:34;94564.94;;;20.90;100.00
20620;BME280;10469;42.720;23.252;2023-07-31T03:43:59;94576.50;;;20.96;100.00
20620;BME280;10469;42.720;23.252;2023-07-31T03:46:25;94580.47;;;20.90;100.00
20620;BME280;10469;42.720;23.252;2023-07-31T03:48:51;94582.31;;;20.80;100.00
20620;BME280;10469;42.720;23.252;2023-07-31T03:51:17;94580.47;;;20.90;100.00
20620;BME280;10469;42.720;23.252;2023-07-31T03:53:43;94568.13;;;20.70;100.00
20620;BME280;10469;42.720;23.252;2023-07-31T03:56:09;94589.84;;;20.61;100.00
20620;BME280;10469;42.720;23.252;2023-07-31T03:58:35;94580.31;;;20.72;100.00
20620;BME280;10469;42.720;23.252;2023-07-31T04:01:02;94588.19;;;20.74;100.00
20620;BME280;10469;42.720;23.252;2023-07-31T04:03:28;94602.06;;;20.50;100.00
20620;BME280;10469;42.720;23.252;2023-07-31T04:05:55;94590.84;;;20.65;100.00
20620;BME280;10469;42.720;23.252;2023-07-31T04:08:23;94581.94;;;20.73;100.00
20620;BME280;10469;42.720;23.252;2023-07-31T04:10:50;94591.31;;;20.67;100.00
20620;BME280;10469;42.720;23.252;2023-07-31T04:13:15;94582.44;;;20.75;100.00
20620;BME280;10469;42.720;23.252;2023-07-31T04:15:41;94597.19;;;20.97;100.00
20620;BME280;10469;42.720;23.252;2023-07-31T04:18:07;94583.09;;;20.95;100.00
20620;BME280;10469;42.720;23.252;2023-07-31T04:20:32;94595.53;;;20.87;100.00
20620;BME280;10469;42.720;23.252;2023-07-31T04:22:58;94597.06;;;20.79;100.00
20620;BME280;10469;42.720;23.252;2023-07-31T04:25:24;94598.69;;;21.03;100.00
20620;BME280;10469;42.720;23.252;2023-07-31T04:27:49;94600.72;;;21.20;100.00
20620;BME280;10469;42.720;23.252;2023-07-31T04:30:15;94592.41;;;21.39;100.00
20620;BME280;10469;42.720;23.252;2023-07-31T04:32:41;94596.16;;;21.51;100.00
20620;BME280;10469;42.720;23.252;2023-07-31T04:35:07;94594.84;;;21.49;100.00
20620;BME280;10469;42.720;23.252;2023-07-31T04:37:32;94599.16;;;21.72;100.00
20620;BME280;10469;42.720;23.252;2023-07-31T04:39:58;94601.63;;;21.83;100.00
20620;BME280;10469;42.720;23.252;2023-07-31T04:42:24;94595.84;;;22.15;100.00
20620;BME280;10469;42.720;23.252;2023-07-31T04:44:49;94591.00;;;22.12;100.00
20620;BME280;10469;42.720;23.252;2023-07-31T04:47:15;94602.19;;;22.42;100.00
20620;BME280;10469;42.720;23.252;2023-07-31T04:49:41;94582.88;;;21.59;100.00
20620;BME280;10469;42.720;23.252;2023-07-31T04:52:06;94592.94;;;21.49;100.00
20620;BME280;10469;42.720;23.252;2023-07-31T04:54:32;94588.44;;;21.85;100.00
20620;BME280;10469;42.720;23.252;2023-07-31T04:56:58;94598.19;;;22.57;100.00
20620;BME280;10469;42.720;23.252;2023-07-31T04:59:23;94600.94;;;22.83;100.00
20620;BME280;10469;42.720;23.252;2023-07-31T05:01:49;94581.31;;;22.46;100.00
20620;BME280;10469;42.720;23.252;2023-07-31T05:04:14;94586.28;;;22.44;100.00
20620;BME280;10469;42.720;23.252;2023-07-31T05:06:40;94583.09;;;21.71;100.00
20620;BME280;10469;42.720;23.252;2023-07-31T05:09:06;94596.81;;;21.88;100.00
20620;BME280;10469;42.720;23.252;2023-07-31T05:11:32;94598.47;;;22.29;100.00
20620;BME280;10469;42.720;23.252;2023-07-31T05:13:58;94590.09;;;21.86;100.00
20620;BME280;10469;42.720;23.252;2023-07-31T05:16:23;94582.84;;;22.21;100.00
20620;BME280;10469;42.720;23.252;2023-07-31T05:18:49;94567.78;;;21.92;100.00
20620;BME280;10469;42.720;23.252;2023-07-31T05:21:14;94585.41;;;22.17;100.00
20620;BME280;10469;42.720;23.252;2023-07-31T05:23:40;94590.31;;;22.55;100.00
20620;BME280;10469;42.720;23.252;2023-07-31T05:26:06;94592.03;;;22.34;100.00
20620;BME280;10469;42.720;23.252;2023-07-31T05:28:35;94600.47;;;22.72;100.00
20620;BME280;10469;42.720;23.252;2023-07-31T05:31:02;94590.84;;;23.00;100.00
20620;BME280;10469;42.720;23.252;2023-07-31T05:33:28;94601.25;;;23.76;100.00
20620;BME280;10469;42.720;23.252;2023-07-31T05:35:54;94586.44;;;23.69;100.00
20620;BME280;10469;42.720;23.252;2023-07-31T05:38:20;94583.75;;;23.43;100.00
20620;BME280;10469;42.720;23.252;2023-07-31T05:40:46;94587.75;;;23.54;100.00
20620;BME280;10469;42.720;23.252;2023-07-31T05:43:12;94590.09;;;24.28;100.00
20620;BME280;10469;42.720;23.252;2023-07-31T05:45:38;94595.84;;;24.06;100.00
20620;BME280;10469;42.720;23.252;2023-07-31T05:48:04;94595.78;;;22.46;100.00
20620;BME280;10469;42.720;23.252;2023-07-31T05:50:30;94581.63;;;22.53;100.00
20620;BME280;10469;42.720;23.252;2023-07-31T05:52:55;94587.97;;;23.23;100.00
20620;BME280;10469;42.720;23.252;2023-07-31T05:55:21;94583.84;;;24.19;100.00
20620;BME280;10469;42.720;23.252;2023-07-31T05:57:47;94600.81;;;23.22;100.00
20620;BME280;10469;42.720;23.252;2023-07-31T06:00:13;94577.88;;;23.79;100.00
20620;BME280;10469;42.720;23.252;2023-07-31T06:02:39;94601.31;;;23.24;100.00
20620;BME280;10469;42.720;23.252;2023-07-31T06:05:05;94600.28;;;23.64;100.00
20620;BME280;10469;42.720;23.252;2023-07-31T06:07:33;94598.34;;;24.20;100.00
20620;BME280;10469;42.720;23.252;2023-07-31T06:09:59;94593.53;;;24.76;100.00
20620;BME280;10469;42.720;23.252;2023-07-31T06:12:30;94608.53;;;25.41;100.00
20620;BME280;10469;42.720;23.252;2023-07-31T06:14:56;94605.25;;;26.39;100.00
20620;BME280;10469;42.720;23.252;2023-07-31T06:17:22;94603.84;;;25.42;100.00
20620;BME280;10469;42.720;23.252;2023-07-31T06:19:49;94606.88;;;25.49;100.00
20620;BME280;10469;42.720;23.252;2023-07-31T06:22:14;94596.91;;;24.22;100.00
20620;BME280;10469;42.720;23.252;2023-07-31T06:24:40;94607.72;;;24.99;100.00
20620;BME280;10469;42.720;23.252;2023-07-31T06:27:06;94609.16;;;24.16;100.00
20620;BME280;10469;42.720;23.252;2023-07-31T06:29:32;94618.03;;;22.97;100.00
20620;BME280;10469;42.720;23.252;2023-07-31T06:31:58;94613.44;;;23.96;100.00
20620;BME280;10469;42.720;23.252;2023-07-31T06:34:24;94606.19;;;25.52;100.00
20620;BME280;10469;42.720;23.252;2023-07-31T06:36:49;94599.16;;;25.75;100.00
20620;BME280;10469;42.720;23.252;2023-07-31T06:39:15;94608.53;;;26.08;100.00
20620;BME280;10469;42.720;23.252;2023-07-31T06:41:42;94604.53;;;25.39;100.00
20620;BME280;10469;42.720;23.252;2023-07-31T06:44:08;94601.66;;;24.43;100.00
20620;BME280;10469;42.720;23.252;2023-07-31T06:46:34;94618.56;;;24.45;100.00
20620;BME280;10469;42.720;23.252;2023-07-31T06:48:59;94619.03;;;24.76;100.00
20620;BME280;10469;42.720;23.252;2023-07-31T06:51:25;94618.53;;;25.79;100.00
20620;BME280;10469;42.720;23.252;2023-07-31T06:53:51;94616.41;;;25.10;100.00
20620;BME280;10469;42.720;23.252;2023-07-31T06:56:16;94608.88;;;26.06;100.00
20620;BME280;10469;42.720;23.252;2023-07-31T06:58:42;94612.53;;;27.20;100.00
20620;BME280;10469;42.720;23.252;2023-07-31T07:01:08;94609.88;;;28.40;100.00
20620;BME280;10469;42.720;23.252;2023-07-31T07:03:34;94610.09;;;27.87;100.00
20620;BME280;10469;42.720;23.252;2023-07-31T07:05:59;94604.47;;;30.30;100.00
20620;BME280;10469;42.720;23.252;2023-07-31T07:08:25;94600.44;;;26.36;100.00
20620;BME280;10469;42.720;23.252;2023-07-31T07:10:51;94594.84;;;29.04;100.00
20620;BME280;10469;42.720;23.252;2023-07-31T07:13:17;94587.06;;;30.53;98.64
20620;BME280;10469;42.720;23.252;2023-07-31T07:15:48;94585.84;;;29.07;100.00
20620;BME280;10469;42.720;23.252;2023-07-31T07:18:13;94597.50;;;28.18;100.00
20620;BME280;10469;42.720;23.252;2023-07-31T07:20:39;94580.72;;;26.70;100.00
20620;BME280;10469;42.720;23.252;2023-07-31T07:23:05;94575.59;;;26.57;100.00
20620;BME280;10469;42.720;23.252;2023-07-31T07:25:31;94590.16;;;28.38;100.00
20620;BME280;10469;42.720;23.252;2023-07-31T07:27:57;94589.13;;;27.02;100.00
20620;BME280;10469;42.720;23.252;2023-07-31T07:30:23;94578.72;;;30.26;100.00
20620;BME280;10469;42.720;23.252;2023-07-31T07:32:50;94582.59;;;28.50;100.00
20620;BME280;10469;42.720;23.252;2023-07-31T07:35:16;94583.72;;;28.34;100.00
20620;BME280;10469;42.720;23.252;2023-07-31T07:37:41;94589.13;;;27.02;100.00
20620;BME280;10469;42.720;23.252;2023-07-31T07:40:07;94588.72;;;28.60;100.00
20620;BME280;10469;42.720;23.252;2023-07-31T07:42:33;94585.28;;;26.91;100.00
20620;BME280;10469;42.720;23.252;2023-07-31T07:44:59;94576.28;;;28.85;100.00
20620;BME280;10469;42.720;23.252;2023-07-31T07:47:24;94590.91;;;30.44;96.94
20620;BME280;10469;42.720;23.252;2023-07-31T07:49:50;94587.47;;;29.28;100.00
20620;BME280;10469;42.720;23.252;2023-07-31T07:52:16;94585.84;;;30.50;99.13
20620;BME280;10469;42.720;23.252;2023-07-31T07:54:41;94597.75;;;30.54;94.39
20620;BME280;10469;42.720;23.252;2023-07-31T07:57:07;94604.06;;;27.41;100.00
20620;BME280;10469;42.720;23.252;2023-07-31T07:59:32;94604.22;;;27.73;100.00
20620;BME280;10469;42.720;23.252;2023-07-31T08:01:58;94606.16;;;27.32;100.00
20620;BME280;10469;42.720;23.252;2023-07-31T08:04:24;94596.16;;;27.68;100.00
20620;BME280;10469;42.720;23.252;2023-07-31T08:06:49;94594.28;;;28.32;100.00
20620;BME280;10469;42.720;23.252;2023-07-31T08:09:15;94597.44;;;28.46;100.00
20620;BME280;10469;42.720;23.252;2023-07-31T08:11:41;94608.88;;;27.16;100.00
20620;BME280;10469;42.720;23.252;2023-07-31T08:14:06;94578.47;;;28.95;100.00
20620;BME280;10469;42.720;23.252;2023-07-31T08:16:32;94599.47;;;28.65;98.71
20620;BME280;10469;42.720;23.252;2023-07-31T08:18:58;94607.63;;;27.98;100.00
20620;BME280;10469;42.720;23.252;2023-07-31T08:21:23;94582.13;;;28.99;100.00
20620;BME280;10469;42.720;23.252;2023-07-31T08:23:49;94598.22;;;30.33;93.06
20620;BME280;10469;42.720;23.252;2023-07-31T08:26:16;94585.22;;;29.33;98.11
20620;BME280;10469;42.720;23.252;2023-07-31T08:28:41;94588.50;;;28.68;98.66
20620;BME280;10469;42.720;23.252;2023-07-31T08:31:07;94599.03;;;29.33;96.38
20620;BME280;10469;42.720;23.252;2023-07-31T08:33:33;94584.00;;;31.11;87.90
20620;BME280;10469;42.720;23.252;2023-07-31T08:35:58;94592.66;;;30.79;86.02
20620;BME280;10469;42.720;23.252;2023-07-31T08:38:25;94592.22;;;30.08;92.91
20620;BME280;10469;42.720;23.252;2023-07-31T08:40:51;94597.63;;;28.88;98.89
20620;BME280;10469;42.720;23.252;2023-07-31T08:43:18;94592.41;;;31.78;85.75
20620;BME280;10469;42.720;23.252;2023-07-31T08:45:45;94598.78;;;30.69;89.37
20620;BME280;10469;42.720;23.252;2023-07-31T08:48:12;94606.84;;;28.45;98.16
20620;BME280;10469;42.720;23.252;2023-07-31T08:50:38;94588.84;;;29.18;96.90
20620;BME280;10469;42.720;23.252;2023-07-31T08:53:04;94584.34;;;30.10;91.43
20620;BME280;10469;42.720;23.252;2023-07-31T08:55:31;94593.75;;;32.77;76.95
20620;BME280;10469;42.720;23.252;2023-07-31T08:57:58;94583.72;;;31.19;78.95
20620;BME280;10469;42.720;23.252;2023-07-31T09:00:26;94586.06;;;30.15;86.75
20620;BME280;10469;42.720;23.252;2023-07-31T09:03:15;94595.81;;;28.61;97.59
20620;BME280;10469;42.720;23.252;2023-07-31T09:05:43;94585.56;;;29.90;89.28
20620;BME280;10469;42.720;23.252;2023-07-31T09:08:11;94596.50;;;29.63;91.56
20620;BME280;10469;42.720;23.252;2023-07-31T09:10:44;94587.25;;;32.58;78.57
20620;BME280;10469;42.720;23.252;2023-07-31T09:13:15;94591.41;;;29.46;89.88
20620;BME280;10469;42.720;23.252;2023-07-31T09:15:43;94572.91;;;29.89;91.37
20620;BME280;10469;42.720;23.252;2023-07-31T09:18:10;94574.94;;;30.84;86.73
20620;BME280;10469;42.720;23.252;2023-07-31T09:20:36;94574.44;;;29.09;93.34
20620;BME280;10469;42.720;23.252;2023-07-31T09:23:09;94576.81;;;31.06;85.54
20620;BME280;10469;42.720;23.252;2023-07-31T09:25:35;94565.06;;;33.13;74.67
20620;BME280;10469;42.720;23.252;2023-07-31T09:28:05;94566.00;;;33.46;68.82
20620;BME280;10469;42.720;23.252;2023-07-31T09:30:45;94571.19;;;30.23;81.50
20620;BME280;10469;42.720;23.252;2023-07-31T09:33:11;94575.47;;;30.70;81.16
20620;BME280;10469;42.720;23.252;2023-07-31T09:35:36;94551.63;;;33.33;66.42
20620;BME280;10469;42.720;23.252;2023-07-31T09:38:13;94549.97;;;34.62;60.08
20620;BME280;10469;42.720;23.252;2023-07-31T09:40:46;94538.97;;;36.38;51.54
20620;BME280;10469;42.720;23.252;2023-07-31T09:43:17;94562.13;;;32.40;70.73
20620;BME280;10469;42.720;23.252;2023-07-31T09:45:44;94556.88;;;31.23;78.81
20620;BME280;10469;42.720;23.252;2023-07-31T09:48:12;94564.88;;;31.29;74.36
20620;BME280;10469;42.720;23.252;2023-07-31T09:50:39;94552.75;;;31.10;77.37
20620;BME280;10469;42.720;23.252;2023-07-31T09:53:06;94552.44;;;29.51;89.27
20620;BME280;10469;42.720;23.252;2023-07-31T09:55:32;94558.69;;;29.67;87.05
20620;BME280;10469;42.720;23.252;2023-07-31T09:57:58;94556.88;;;30.44;85.42
20620;BME280;10469;42.720;23.252;2023-07-31T10:00:24;94549.47;;;31.65;75.63
20620;BME280;10469;42.720;23.252;2023-07-31T10:02:54;94544.25;;;32.89;68.18
20620;BME280;10469;42.720;23.252;2023-07-31T10:05:22;94540.47;;;35.87;50.57
20620;BME280;10469;42.720;23.252;2023-07-31T10:07:54;94542.63;;;33.47;57.69
20620;BME280;10469;42.720;23.252;2023-07-31T10:10:22;94544.28;;;31.97;71.13
20620;BME280;10469;42.720;23.252;2023-07-31T10:13:14;94558.31;;;32.59;64.74
20620;BME280;10469;42.720;23.252;2023-07-31T10:15:41;94539.50;;;31.94;70.28
20620;BME280;10469;42.720;23.252;2023-07-31T10:18:08;94540.03;;;31.06;76.91
20620;BME280;10469;42.720;23.252;2023-07-31T10:20:35;94544.19;;;30.16;80.07
20620;BME280;10469;42.720;23.252;2023-07-31T10:23:02;94540.44;;;31.08;76.46
20620;BME280;10469;42.720;23.252;2023-07-31T10:25:29;94536.41;;;34.14;59.09
20620;BME280;10469;42.720;23.252;2023-07-31T10:27:57;94530.47;;;32.45;67.21
20620;BME280;10469;42.720;23.252;2023-07-31T10:30:27;94538.97;;;31.47;70.26
20620;BME280;10469;42.720;23.252;2023-07-31T10:32:53;94524.50;;;30.97;73.68
20620;BME280;10469;42.720;23.252;2023-07-31T10:35:20;94520.13;;;35.02;54.16
20620;BME280;10469;42.720;23.252;2023-07-31T10:37:48;94514.34;;;32.13;63.00
20620;BME280;10469;42.720;23.252;2023-07-31T10:40:20;94525.34;;;31.02;73.39
20620;BME280;10469;42.720;23.252;2023-07-31T10:42:53;94514.59;;;30.43;76.67
20620;BME280;10469;42.720;23.252;2023-07-31T10:45:31;94526.75;;;30.62;78.06
20620;BME280;10469;42.720;23.252;2023-07-31T10:48:01;94515.56;;;31.82;65.61
20620;BME280;10469;42.720;23.252;2023-07-31T10:50:28;94518.66;;;30.76;70.23
20620;BME280;10469;42.720;23.252;2023-07-31T10:52:55;94487.63;;;31.98;64.91
20620;BME280;10469;42.720;23.252;2023-07-31T10:55:41;94498.50;;;33.45;56.50
20620;BME280;10469;42.720;23.252;2023-07-31T10:58:11;94514.66;;;31.67;64.54
20620;BME280;10469;42.720;23.252;2023-07-31T11:00:39;94507.38;;;28.54;81.36
20620;BME280;10469;42.720;23.252;2023-07-31T11:03:18;94505.28;;;29.83;78.67
20620;BME280;10469;42.720;23.252;2023-07-31T11:06:00;94498.84;;;32.09;64.90
20620;BME280;10469;42.720;23.252;2023-07-31T11:08:30;94513.78;;;31.97;58.75
20620;BME280;10469;42.720;23.252;2023-07-31T12:07:06;94474.94;;;28.47;91.42
20620;BME280;10469;42.720;23.252;2023-07-31T12:09:32;94465.94;;;28.34;89.02
20620;BME280;10469;42.720;23.252;2023-07-31T12:11:58;94481.69;;;28.34;91.44
20620;BME280;10469;42.720;23.252;2023-07-31T12:14:27;94468.06;;;28.41;88.81
20620;BME280;10469;42.720;23.252;2023-07-31T12:16:57;94462.88;;;28.20;89.01
20620;BME280;10469;42.720;23.252;2023-07-31T12:19:25;94463.09;;;28.31;86.46
20620;BME280;10469;42.720;23.252;2023-07-31T12:21:58;94452.81;;;28.63;83.38
20620;BME280;10469;42.720;23.252;2023-07-31T12:24:26;94458.38;;;29.63;79.06
20620;BME280;10469;42.720;23.252;2023-07-31T12:26:52;94454.63;;;29.33;79.72
20620;BME280;10469;42.720;23.252;2023-07-31T12:29:18;94464.38;;;28.68;80.57
20620;BME280;10469;42.720;23.252;2023-07-31T12:31:43;94466.25;;;28.84;83.22
20620;BME280;10469;42.720;23.252;2023-07-31T12:34:16;94454.47;;;28.48;84.75
20620;BME280;10469;42.720;23.252;2023-07-31T12:36:43;94460.16;;;28.94;84.70
20620;BME280;10469;42.720;23.252;2023-07-31T12:39:09;94453.94;;;29.16;82.48
20620;BME280;10469;42.720;23.252;2023-07-31T12:41:35;94458.88;;;28.53;85.29
20620;BME280;10469;42.720;23.252;2023-07-31T12:44:01;94455.47;;;28.24;85.24
20620;BME280;10469;42.720;23.252;2023-07-31T12:46:26;94465.97;;;28.18;87.27
20620;BME280;10469;42.720;23.252;2023-07-31T12:48:52;94450.97;;;28.16;87.18
20620;BME280;10469;42.720;23.252;2023-07-31T12:51:17;94440.34;;;28.34;87.87
20620;BME280;10469;42.720;23.252;2023-07-31T12:53:43;94446.34;;;28.55;89.84
20620;BME280;10469;42.720;23.252;2023-07-31T12:56:08;94444.94;;;29.00;88.64
20620;BME280;10469;42.720;23.252;2023-07-31T12:58:34;94440.91;;;29.82;83.33
20620;BME280;10469;42.720;23.252;2023-07-31T13:01:00;94440.13;;;28.78;82.53
20620;BME280;10469;42.720;23.252;2023-07-31T13:03:27;94430.81;;;29.05;82.00
20620;BME280;10469;42.720;23.252;2023-07-31T13:05:54;94420.84;;;29.62;80.01
20620;BME280;10469;42.720;23.252;2023-07-31T13:08:20;94430.34;;;29.65;79.56
20620;BME280;10469;42.720;23.252;2023-07-31T13:10:46;94435.09;;;28.29;84.55
20620;BME280;10469;42.720;23.252;2023-07-31T13:13:11;94442.03;;;28.38;85.45
20620;BME280;10469;42.720;23.252;2023-07-31T13:15:37;94445.81;;;27.51;85.81
20620;BME280;10469;42.720;23.252;2023-07-31T13:18:03;94430.16;;;27.71;83.48
20620;BME280;10469;42.720;23.252;2023-07-31T13:20:28;94447.28;;;27.33;84.82
20620;BME280;10469;42.720;23.252;2023-07-31T13:22:54;94445.28;;;27.30;84.54
20620;BME280;10469;42.720;23.252;2023-07-31T13:25:19;94442.25;;;27.66;84.67
20620;BME280;10469;42.720;23.252;2023-07-31T13:27:45;94439.44;;;28.30;83.22
20620;BME280;10469;42.720;23.252;2023-07-31T13:30:11;94428.00;;;28.63;84.78
20620;BME280;10469;42.720;23.252;2023-07-31T13:32:36;94436.47;;;28.54;82.90
20620;BME280;10469;42.720;23.252;2023-07-31T13:35:08;94435.44;;;28.62;81.56
20620;BME280;10469;42.720;23.252;2023-07-31T13:37:34;94437.44;;;28.11;83.56
20620;BME280;10469;42.720;23.252;2023-07-31T13:40:00;94444.19;;;28.13;83.60
20620;BME280;10469;42.720;23.252;2023-07-31T13:42:26;94441.09;;;27.51;82.64
20620;BME280;10469;42.720;23.252;2023-07-31T13:44:53;94438.88;;;28.05;82.00